»·PEaware :: SKW282 KBFL-KPHX

SKW282 :: KBFL-KPHX

FLIGHT INFORMATION

Flight Status: Arrived
Operator:
SkyWest Airlines
More flights by this operator :: More flights under this callsign
Pilot: Charles D. (23067)
Aircraft: EMBRAER ERJ-135/140
(E135)
More flights by this aircraft type
Origin: KBFL Meadows
United States
Destination: KPHX Phoenix Sky Harbor Intl
United States
More flights between these airports :: More routes between these airports
Route: +V197 PMD J6 HEC PRFUM WOTRO BRUSR1
File this flight plan on PilotEdge
Remarks: RMK / SIMBRIEF
Altitude:
(Current/Filed)
31,000ft
Speed:
(Current/Filed)
436kts
Departed: 04-Mar-19 08:51 AM
Arrived: 04-Mar-19 09:53 AM
Distance/Time
Traveled:
369nm/1:02
Distance/Time
To Go:
Arrived

Flight Plot

Page will automatically refresh every two minutes.

Flight plan parsing failed; only flown route is shown


Map Options




Map Legend


Flown Route
Filed Route
Departure Airport
Arrival Airport
Navaid (VOR, NDB)
Fix

Horizontal Profiles

Position Reports

Time Latitude Longitude Heading Altitude Ground
Speed
04-Mar-19 08:25 35.437661 -119.055195 139 505ft 0kts
04-Mar-19 08:26 35.437661 -119.055195 139 505ft 0kts
04-Mar-19 08:27 35.437661 -119.055195 139 505ft 0kts
04-Mar-19 08:28 35.437661 -119.055195 139 505ft 0kts
04-Mar-19 08:29 35.437661 -119.055195 139 505ft 0kts
04-Mar-19 08:30 35.437661 -119.055195 139 505ft 0kts
04-Mar-19 08:31 35.437661 -119.055195 139 505ft 0kts
04-Mar-19 08:32 35.437661 -119.055195 139 505ft 0kts
04-Mar-19 08:33 35.437661 -119.055195 139 505ft 0kts
04-Mar-19 08:34 35.437661 -119.055195 139 505ft 0kts
04-Mar-19 08:35 35.437661 -119.055195 139 505ft 0kts
04-Mar-19 08:36 35.437661 -119.055195 139 505ft 0kts
04-Mar-19 08:37 35.437661 -119.055195 139 505ft 0kts
04-Mar-19 08:38 35.437661 -119.055195 139 505ft 0kts
04-Mar-19 08:39 35.437661 -119.055195 139 505ft 0kts
04-Mar-19 08:40 35.437661 -119.055195 139 505ft 0kts
04-Mar-19 08:41 35.437661 -119.055195 139 505ft 0kts
04-Mar-19 08:42 35.437661 -119.055195 139 505ft 0kts
04-Mar-19 08:43 35.437661 -119.055195 139 505ft 0kts
04-Mar-19 08:44 35.437661 -119.055195 139 505ft 0kts
04-Mar-19 08:45 35.437324 -119.056133 307 502ft 12kts
04-Mar-19 08:46 35.434356 -119.054606 135 496ft 23kts
04-Mar-19 08:47 35.429382 -119.048588 135 493ft 26kts
04-Mar-19 08:48 35.425559 -119.044708 246 483ft 0kts
04-Mar-19 08:49 35.425455 -119.044995 246 482ft 0kts
04-Mar-19 08:50 35.441324 -119.064992 314 995ft 215kts
04-Mar-19 08:51 35.490163 -119.131013 306 3432ft 282kts
04-Mar-19 08:52 35.463688 -119.198012 187 5905ft 291kts
04-Mar-19 08:53 35.399619 -119.155632 128 9095ft 286kts
04-Mar-19 08:54 35.351928 -119.073569 127 12427ft 326kts
04-Mar-19 08:55 35.292010 -118.970156 127 15827ft 418kts
04-Mar-19 08:56 35.219428 -118.844836 127 19195ft 483kts
04-Mar-19 08:57 35.138107 -118.703498 127 22561ft 526kts
04-Mar-19 08:58 35.059849 -118.561618 126 26754ft 501kts
04-Mar-19 08:59 34.967450 -118.433802 145 28750ft 507kts
04-Mar-19 09:00 34.861629 -118.317118 147 31031ft 535kts
04-Mar-19 09:01 34.750503 -118.194506 147 31042ft 523kts
04-Mar-19 09:02 34.653079 -118.065896 119 31062ft 526kts
04-Mar-19 09:03 34.651034 -117.880955 78 31065ft 586kts
04-Mar-19 09:04 34.673379 -117.677102 80 31067ft 599kts
04-Mar-19 09:05 34.694518 -117.477889 81 31076ft 587kts
04-Mar-19 09:06 34.715135 -117.280436 81 31061ft 583kts
04-Mar-19 09:07 34.736113 -117.076182 81 31058ft 578kts
04-Mar-19 09:08 34.755709 -116.882134 80 31109ft 575kts
04-Mar-19 09:09 34.774979 -116.688368 80 31116ft 575kts
04-Mar-19 09:10 34.794257 -116.492055 81 31118ft 576kts
04-Mar-19 09:11 34.819690 -116.290000 78 31120ft 575kts
04-Mar-19 09:13 34.844943 -116.094905 78 31148ft 574kts
04-Mar-19 09:14 34.869841 -115.900006 78 31159ft 575kts
04-Mar-19 09:15 34.894296 -115.705978 78 31164ft 575kts
04-Mar-19 09:16 34.918692 -115.509858 77 31111ft 576kts
04-Mar-19 09:17 34.942514 -115.316180 78 31059ft 575kts
04-Mar-19 09:18 34.966410 -115.118748 78 31062ft 573kts
04-Mar-19 09:19 34.989340 -114.926871 77 31067ft 568kts
04-Mar-19 09:20 35.011759 -114.736346 77 31074ft 566kts
04-Mar-19 09:21 35.034281 -114.542741 77 31079ft 564kts
04-Mar-19 09:22 35.056422 -114.349336 78 31084ft 562kts
04-Mar-19 09:23 35.078812 -114.150956 78 31073ft 560kts
04-Mar-19 09:24 35.100415 -113.956989 78 31089ft 560kts
04-Mar-19 09:25 35.121672 -113.763081 78 31098ft 560kts
04-Mar-19 09:26 35.142166 -113.573018 78 31071ft 563kts
04-Mar-19 09:27 35.161620 -113.381415 85 29352ft 569kts
04-Mar-19 09:28 35.110648 -113.211459 132 29094ft 528kts
04-Mar-19 09:29 35.026933 -113.062179 128 28179ft 539kts
04-Mar-19 09:30 34.942546 -112.909826 128 26302ft 541kts
04-Mar-19 09:31 34.858233 -112.758352 128 24764ft 540kts
04-Mar-19 09:32 34.775035 -112.609452 128 24123ft 519kts
04-Mar-19 09:33 34.691102 -112.471591 141 24135ft 499kts
04-Mar-19 09:34 34.588496 -112.368644 148 22751ft 452kts
04-Mar-19 09:34 34.510271 -112.292381 148 21441ft 419kts
04-Mar-19 09:36 34.400826 -112.218687 176 19624ft 371kts
04-Mar-19 09:37 34.299211 -112.192149 176 17791ft 377kts
04-Mar-19 09:37 34.214397 -112.170185 175 16024ft 369kts
04-Mar-19 09:38 34.119285 -112.145619 174 13865ft 330kts
04-Mar-19 09:39 34.034765 -112.143015 191 12468ft 293kts
04-Mar-19 09:40 33.951722 -112.152175 189 10970ft 304kts
04-Mar-19 09:41 33.867669 -112.165675 194 9459ft 306kts
04-Mar-19 09:42 33.783225 -112.184160 193 7935ft 310kts
04-Mar-19 09:43 33.704213 -112.203040 193 6377ft 272kts
04-Mar-19 09:44 33.633008 -112.221348 193 4576ft 257kts
04-Mar-19 09:45 33.569434 -112.238753 193 3997ft 196kts
04-Mar-19 09:46 33.525178 -112.250996 194 3719ft 175kts
04-Mar-19 09:47 33.471484 -112.252920 143 3655ft 182kts
04-Mar-19 09:48 33.442076 -112.205191 105 2435ft 169kts
04-Mar-19 09:49 33.440894 -112.145755 89 1857ft 183kts
04-Mar-19 09:50 33.441006 -112.085986 90 1896ft 160kts
04-Mar-19 09:51 33.440987 -112.041052 90 1302ft 120kts
04-Mar-19 09:52 33.439934 -112.016834 163 1123ft 14kts
04-Mar-19 09:53 33.439740 -112.015241 90 1125ft 15kts
04-Mar-19 09:54 33.439749 -112.007018 89 1130ft 29kts
04-Mar-19 09:55 33.439146 -111.998878 113 1133ft 15kts
04-Mar-19 09:56 33.438125 -111.997271 129 1132ft 0kts

Navigation Log

Ident Type
Flight plan parsing failed, navigation log unavailable